Time;durP1;ratioP1;P1;durP2;ratioP2;P2;SDS_P1;SDS_P2;PMS_P1;PMS_P2;Temp;Humidity;BMP_temperature;BMP_pressure;BME280_temperature;BME280_humidity;BME280_pressure;Samples;Min_cycle;Max_cycle;Signal;HPM_P1;HPM_P2
2022/12/08 00:01:32;;;;;;;47.15;28.88;;;6.70;99.90;;;;;;5115848;28;20481;-75
2022/12/08 00:04:00;;;;;;;47.15;28.70;;;6.70;99.90;;;;;;5115940;28;20030;-76
2022/12/08 00:09:21;;;;;;;60.03;34.38;;;6.60;99.90;;;;;;5115300;28;20119;-75
2022/12/08 00:11:54;;;;;;;72.07;42.05;;;6.50;99.90;;;;;;5115882;28;20031;-75
2022/12/08 00:14:29;;;;;;;61.15;38.08;;;6.50;99.90;;;;;;5115775;28;20085;-75
2022/12/08 00:16:56;;;;;;;57.58;35.65;;;6.50;99.90;;;;;;5115752;28;20038;-75
2022/12/08 00:19:23;;;;;;;67.68;37.42;;;6.50;99.90;;;;;;5115364;28;20051;-75
2022/12/08 00:21:50;;;;;;;66.45;37.95;;;6.30;99.90;;;;;;5115592;28;20450;-75
2022/12/08 00:24:17;;;;;;;64.35;37.17;;;6.30;99.90;;;;;;5115539;28;20066;-75
2022/12/08 00:26:43;;;;;;;79.75;45.95;;;6.30;99.90;;;;;;5115615;28;20031;-75
2022/12/08 00:29:09;;;;;;;75.32;44.17;;;6.40;99.90;;;;;;5115674;28;20072;-75
2022/12/08 00:31:35;;;;;;;82.50;46.75;;;6.40;99.90;;;;;;5115363;28;20030;-75
2022/12/08 00:34:02;;;;;;;79.35;48.42;;;6.30;99.90;;;;;;5115391;28;20024;-75
2022/12/08 00:36:29;;;;;;;88.57;51.65;;;6.30;99.90;;;;;;5115486;28;20030;-75
2022/12/08 00:38:55;;;;;;;95.18;53.45;;;6.30;99.90;;;;;;5115210;28;20088;-75
2022/12/08 00:44:11;;;;;;;91.35;50.20;;;6.40;99.90;;;;;;5115265;28;20032;-75
2022/12/08 00:46:37;;;;;;;101.07;55.85;;;6.40;99.90;;;;;;5114865;28;20020;-76
2022/12/08 00:49:04;;;;;;;103.53;57.85;;;6.50;99.90;;;;;;5115272;28;20019;-75
2022/12/08 00:51:30;;;;;;;97.70;53.50;;;6.40;99.90;;;;;;5114785;28;20024;-75
2022/12/08 00:53:56;;;;;;;100.88;54.22;;;6.40;99.90;;;;;;5115137;28;20388;-75
2022/12/08 00:56:22;;;;;;;94.32;52.58;;;6.40;99.90;;;;;;5114762;28;20381;-75
2022/12/08 00:58:47;;;;;;;104.72;57.30;;;6.40;99.90;;;;;;5114836;28;20061;-76
2022/12/08 01:01:14;;;;;;;105.10;56.88;;;6.40;99.90;;;;;;5114731;28;20031;-76
2022/12/08 01:03:41;;;;;;;116.13;63.50;;;6.40;99.90;;;;;;5114588;28;20028;-75
2022/12/08 01:06:08;;;;;;;119.82;65.22;;;6.40;99.90;;;;;;5096721;28;20526;-75
2022/12/08 01:08:36;;;;;;;124.28;69.25;;;6.40;99.90;;;;;;5114720;28;20023;-75
2022/12/08 01:11:07;;;;;;;151.40;70.00;;;6.50;99.90;;;;;;5094605;28;20020;-75
2022/12/08 01:13:33;;;;;;;287.73;113.43;;;6.50;99.90;;;;;;5094118;28;20024;-76
2022/12/08 01:15:59;;;;;;;298.58;110.50;;;6.70;99.90;;;;;;5094497;28;20036;-75
2022/12/08 01:18:26;;;;;;;214.40;90.13;;;6.70;99.90;;;;;;5094164;28;20062;-75
2022/12/08 01:20:52;;;;;;;182.05;87.03;;;6.80;99.90;;;;;;5093542;28;20485;-75
2022/12/08 01:23:18;;;;;;;161.77;79.07;;;6.70;99.90;;;;;;5093882;28;20099;-75
2022/12/08 01:25:44;;;;;;;147.35;77.43;;;6.70;99.90;;;;;;5094568;28;20107;-75
2022/12/08 01:28:10;;;;;;;140.13;73.63;;;6.80;99.90;;;;;;5094320;28;20454;-75
2022/12/08 01:30:39;;;;;;;128.65;68.22;;;6.70;99.90;;;;;;5094114;28;20116;-75
2022/12/08 01:33:05;;;;;;;111.90;62.30;;;6.60;99.90;;;;;;5094050;28;20030;-75
2022/12/08 01:35:33;;;;;;;109.68;60.92;;;6.60;99.90;;;;;;5093924;28;20107;-75
2022/12/08 01:37:59;;;;;;;114.63;59.90;;;6.70;99.90;;;;;;5094198;28;20035;-75
2022/12/08 01:40:25;;;;;;;101.95;56.58;;;6.80;99.90;;;;;;5094032;28;20400;-74
2022/12/08 01:42:51;;;;;;;98.65;53.55;;;6.80;99.90;;;;;;5093969;28;20028;-75
2022/12/08 01:45:24;;;;;;;97.35;52.75;;;6.80;99.90;;;;;;5094410;28;20318;-75
2022/12/08 01:47:55;;;;;;;103.95;55.63;;;6.80;99.90;;;;;;5093958;28;20063;-75
2022/12/08 01:50:21;;;;;;;;;;;6.60;99.90;;;;;;5102044;28;20028;-75
2022/12/08 01:52:52;;;;;;;81.85;45.80;;;6.70;99.90;;;;;;5114547;28;20030;-75
2022/12/08 01:55:23;;;;;;;81.30;44.25;;;6.70;99.90;;;;;;5114260;28;20031;-75
2022/12/08 01:58:01;;;;;;;82.55;44.92;;;6.60;99.90;;;;;;5114215;28;20032;-75
2022/12/08 02:00:27;;;;;;;76.03;41.88;;;6.50;99.90;;;;;;5096146;28;20069;-75
2022/12/08 02:02:58;;;;;;;74.93;42.50;;;6.40;99.90;;;;;;5114174;28;20031;-75
2022/12/08 02:05:30;;;;;;;69.63;40.28;;;6.50;99.90;;;;;;5114297;28;20024;-75
2022/12/08 02:07:59;;;;;;;65.97;36.25;;;6.50;99.90;;;;;;5114291;28;20032;-76
2022/12/08 02:10:28;;;;;;;69.30;40.85;;;6.50;99.90;;;;;;5113983;28;20016;-75
2022/12/08 02:12:57;;;;;;;83.75;46.17;;;6.50;99.90;;;;;;5114073;28;20393;-75
2022/12/08 02:15:45;;;;;;;90.38;49.92;;;6.40;99.90;;;;;;5114092;28;20023;-76
2022/12/08 02:18:48;;;;;;;97.60;49.13;;;6.40;99.90;;;;;;5113874;28;20051;-75
2022/12/08 02:21:26;;;;;;;69.55;38.17;;;6.50;99.90;;;;;;5114270;28;20180;-75
2022/12/08 02:24:07;;;;;;;77.35;42.25;;;6.50;99.90;;;;;;5114358;28;20023;-75
2022/12/08 02:26:48;;;;;;;108.13;58.53;;;6.50;99.90;;;;;;5113897;28;20024;-75
2022/12/08 02:29:57;;;;;;;120.75;64.57;;;6.50;99.90;;;;;;5114043;28;20130;-75
2022/12/08 02:32:41;;;;;;;130.13;69.20;;;6.50;99.90;;;;;;5116682;28;20300;-75
2022/12/08 02:35:13;;;;;;;108.80;60.60;;;6.40;99.90;;;;;;5117674;28;20496;-75
2022/12/08 02:37:56;;;;;;;113.50;61.30;;;6.50;99.90;;;;;;5117440;28;20027;-75
2022/12/08 02:40:48;;;;;;;108.35;60.38;;;6.50;99.90;;;;;;5117436;28;20032;-75
2022/12/08 02:43:24;;;;;;;110.90;59.65;;;6.60;99.90;;;;;;5116808;28;20511;-75
2022/12/08 02:45:56;;;;;;;113.05;62.05;;;6.60;99.90;;;;;;5117435;28;20106;-75
2022/12/08 02:48:22;;;;;;;115.35;61.88;;;6.70;99.90;;;;;;5117358;28;20110;-75
2022/12/08 02:50:48;;;;;;;119.40;64.05;;;6.60;99.90;;;;;;5117439;28;20020;-75
2022/12/08 02:53:13;;;;;;;96.70;54.85;;;6.60;99.90;;;;;;5117897;28;20038;-75
2022/12/08 02:56:06;;;;;;;94.00;53.83;;;6.60;99.90;;;;;;5117134;28;20028;-76
2022/12/08 02:59:02;;;;;;;98.18;54.92;;;6.70;99.90;;;;;;5117028;28;20034;-76
2022/12/08 03:02:04;;;;;;;96.95;53.50;;;6.70;99.90;;;;;;5117125;28;20030;-75
2022/12/08 03:04:42;;;;;;;92.47;51.78;;;6.80;99.90;;;;;;5014362;28;20045;-75
2022/12/08 03:07:30;;;;;;;88.03;48.53;;;6.80;99.90;;;;;;5014227;28;20141;-76
2022/12/08 03:10:04;;;;;;;84.40;48.17;;;6.80;99.90;;;;;;5014085;28;20467;-75
2022/12/08 03:12:36;;;;;;;85.22;47.55;;;6.70;99.90;;;;;;5014213;28;20089;-75
2022/12/08 03:15:09;;;;;;;78.22;45.85;;;6.60;99.90;;;;;;5014301;28;20032;-76
2022/12/08 03:17:37;;;;;;;95.38;52.10;;;6.60;99.90;;;;;;5014005;28;20065;-76
2022/12/08 03:20:10;;;;;;;99.70;56.28;;;6.60;99.90;;;;;;5014066;28;20057;-75
2022/12/08 03:22:39;;;;;;;88.65;49.00;;;6.60;99.90;;;;;;5013657;28;20507;-75
2022/12/08 03:25:06;;;;;;;87.20;52.63;;;6.60;99.90;;;;;;5014174;28;20042;-75
2022/12/08 03:27:32;;;;;;;89.30;50.97;;;6.60;99.90;;;;;;5013837;28;20320;-75
2022/12/08 03:30:00;;;;;;;89.32;51.50;;;6.50;99.90;;;;;;5014067;28;20488;-75
2022/12/08 03:32:55;;;;;;;87.07;48.35;;;6.50;99.90;;;;;;5013628;28;20499;-75
2022/12/08 03:35:27;;;;;;;92.57;51.53;;;6.60;99.90;;;;;;5013528;28;20044;-75
2022/12/08 03:38:05;;;;;;;90.93;50.60;;;6.60;99.90;;;;;;5040198;28;20040;-75
2022/12/08 03:40:32;;;;;;;84.40;46.75;;;6.60;99.90;;;;;;5116467;28;20039;-75
2022/12/08 03:42:58;;;;;;;91.03;50.15;;;6.60;99.90;;;;;;5115810;28;20032;-75
2022/12/08 03:45:23;;;;;;;82.03;47.85;;;6.40;99.90;;;;;;5116199;28;20030;-75
2022/12/08 03:47:50;;;;;;;80.35;47.42;;;6.50;99.90;;;;;;5116466;28;20095;-75
2022/12/08 03:50:16;;;;;;;88.35;48.55;;;6.50;99.90;;;;;;5109444;28;20020;-75
2022/12/08 03:52:42;;;;;;;90.25;49.58;;;6.50;99.90;;;;;;5095832;28;20043;-75
2022/12/08 03:55:08;;;;;;;92.60;48.75;;;6.50;99.90;;;;;;5096317;28;20024;-75
2022/12/08 03:57:34;;;;;;;88.50;48.53;;;6.50;99.90;;;;;;5095526;28;20420;-75
2022/12/08 04:00:01;;;;;;;87.20;50.75;;;6.50;99.90;;;;;;5095836;28;20031;-75
2022/12/08 04:02:27;;;;;;;84.55;46.88;;;6.40;99.90;;;;;;5095317;28;20028;-75
2022/12/08 04:04:52;;;;;;;92.50;48.25;;;6.30;99.90;;;;;;5077550;28;20040;-75
2022/12/08 04:07:18;;;;;;;84.53;47.97;;;6.30;99.90;;;;;;5095283;28;20082;-75
2022/12/08 04:09:44;;;;;;;86.53;47.70;;;6.40;99.90;;;;;;5105110;28;20025;-75
2022/12/08 04:12:10;;;;;;;94.40;49.58;;;6.50;99.90;;;;;;5115891;28;20020;-75
2022/12/08 04:14:36;;;;;;;86.72;49.55;;;6.40;99.90;;;;;;5115831;28;20027;-75
2022/12/08 04:17:02;;;;;;;83.63;48.40;;;6.40;99.90;;;;;;5115881;28;20024;-75
2022/12/08 04:19:28;;;;;;;85.50;48.22;;;6.40;99.90;;;;;;5115500;28;20044;-75
2022/12/08 04:21:54;;;;;;;87.97;47.55;;;6.40;99.90;;;;;;5115513;28;20093;-75
2022/12/08 04:24:20;;;;;;;81.10;46.60;;;6.40;99.90;;;;;;5115379;28;20024;-75
2022/12/08 04:26:46;;;;;;;86.72;47.03;;;6.40;99.90;;;;;;5097459;28;20461;-75
2022/12/08 04:29:12;;;;;;;83.68;46.83;;;6.40;99.90;;;;;;5115596;28;20046;-75
2022/12/08 04:31:38;;;;;;;84.63;48.05;;;6.50;99.90;;;;;;5115435;28;20532;-75
2022/12/08 04:34:03;;;;;;;80.78;46.30;;;6.40;99.90;;;;;;5115369;28;20415;-75
2022/12/08 04:36:29;;;;;;;89.50;48.03;;;6.40;99.90;;;;;;5115261;28;20027;-75
2022/12/08 04:38:55;;;;;;;93.05;51.88;;;6.40;99.90;;;;;;5115422;28;20028;-75
2022/12/08 04:41:21;;;;;;;92.82;52.40;;;6.40;99.90;;;;;;5115243;28;20036;-76
2022/12/08 04:43:47;;;;;;;83.90;46.55;;;6.40;99.90;;;;;;5115266;28;20089;-75
2022/12/08 04:46:13;;;;;;;71.20;41.28;;;6.40;99.90;;;;;;5115055;28;20026;-75
2022/12/08 04:48:40;;;;;;;85.57;46.80;;;6.50;99.90;;;;;;5114916;28;20038;-75
2022/12/08 04:51:06;;;;;;;89.70;48.05;;;6.40;99.90;;;;;;5101123;28;20027;-75
2022/12/08 04:53:32;;;;;;;77.18;44.97;;;6.40;99.90;;;;;;5094636;28;20052;-76
2022/12/08 04:55:58;;;;;;;78.30;46.53;;;6.40;99.90;;;;;;5094773;28;20028;-75
2022/12/08 04:58:24;;;;;;;77.63;45.65;;;6.40;99.90;;;;;;5094345;28;20028;-75
2022/12/08 05:00:50;;;;;;;83.72;48.72;;;6.40;99.90;;;;;;5094715;28;20030;-75
2022/12/08 05:03:16;;;;;;;84.43;46.28;;;6.40;99.90;;;;;;5094484;28;20030;-75
2022/12/08 05:05:43;;;;;;;84.95;45.78;;;6.30;99.90;;;;;;5094461;28;20024;-75
2022/12/08 05:08:09;;;;;;;83.25;45.75;;;6.40;99.90;;;;;;5094452;28;20027;-76
2022/12/08 05:10:36;;;;;;;83.20;45.20;;;6.40;99.90;;;;;;5110693;28;20441;-75
2022/12/08 05:13:02;;;;;;;78.18;44.47;;;6.40;99.90;;;;;;5114993;28;20054;-76
2022/12/08 05:15:28;;;;;;;82.45;45.60;;;6.40;99.90;;;;;;5114714;28;20086;-75
2022/12/08 05:17:54;;;;;;;78.07;45.45;;;6.30;99.90;;;;;;5114627;28;20032;-75
2022/12/08 05:20:20;;;;;;;78.97;46.05;;;6.30;99.90;;;;;;5095921;28;20107;-76
2022/12/08 05:22:46;;;;;;;77.15;43.17;;;6.30;99.90;;;;;;5114516;28;20051;-76
2022/12/08 05:25:12;;;;;;;74.22;41.92;;;6.40;99.90;;;;;;5114733;28;20027;-76
2022/12/08 05:27:38;;;;;;;74.70;42.92;;;6.50;99.90;;;;;;5114358;28;20359;-76
2022/12/08 05:30:04;;;;;;;74.75;45.72;;;6.50;99.90;;;;;;5114602;28;20354;-75
2022/12/08 05:32:30;;;;;;;72.10;42.80;;;6.40;99.90;;;;;;5114213;28;20035;-76
2022/12/08 05:34:56;;;;;;;75.20;44.70;;;6.30;99.90;;;;;;5114488;28;20478;-76
2022/12/08 05:37:22;;;;;;;74.85;44.15;;;6.30;99.90;;;;;;5114607;28;20023;-76
2022/12/08 05:39:48;;;;;;;71.00;42.30;;;6.40;99.90;;;;;;5114516;28;20023;-75
2022/12/08 05:42:14;;;;;;;73.78;43.53;;;6.50;99.90;;;;;;5114516;28;20122;-75
2022/12/08 05:44:40;;;;;;;74.03;42.15;;;6.60;99.90;;;;;;5114287;28;20169;-76
2022/12/08 05:47:05;;;;;;;81.32;44.33;;;6.50;99.90;;;;;;5114326;28;20023;-75
2022/12/08 05:49:31;;;;;;;91.72;52.17;;;6.40;99.90;;;;;;5114201;28;20030;-75
2022/12/08 05:51:57;;;;;;;92.30;51.20;;;6.50;99.90;;;;;;5114205;28;20019;-75
2022/12/08 05:54:23;;;;;;;89.15;49.67;;;6.50;99.90;;;;;;5114172;28;20512;-75
2022/12/08 05:56:49;;;;;;;87.97;49.03;;;6.60;99.90;;;;;;5114298;28;20358;-75
2022/12/08 05:59:15;;;;;;;114.80;70.30;;;6.60;99.90;;;;;;5114162;28;20035;-75
2022/12/08 06:01:41;;;;;;;107.10;66.35;;;6.60;99.90;;;;;;5114123;28;20374;-75
2022/12/08 06:04:08;;;;;;;103.65;57.83;;;6.60;99.90;;;;;;5114275;28;20024;-75
2022/12/08 06:06:35;;;;;;;96.35;54.75;;;6.50;99.90;;;;;;5115656;28;20084;-76
2022/12/08 06:09:04;;;;;;;89.68;47.10;;;6.50;99.90;;;;;;5114807;28;20020;-75
2022/12/08 06:11:31;;;;;;;81.07;44.38;;;6.40;99.90;;;;;;5097621;28;20020;-75
2022/12/08 06:13:58;;;;;;;80.53;43.95;;;6.40;99.90;;;;;;5097793;28;20062;-75
2022/12/08 06:16:25;;;;;;;90.60;47.17;;;6.40;99.90;;;;;;5097338;28;20050;-76
2022/12/08 06:18:52;;;;;;;99.25;53.13;;;6.40;99.90;;;;;;5103854;28;20048;-75
2022/12/08 06:21:18;;;;;;;99.35;52.03;;;6.50;99.90;;;;;;5080569;28;20052;-75
2022/12/08 06:23:48;;;;;;;107.70;54.70;;;6.40;99.90;;;;;;5092903;28;20629;-76
2022/12/08 06:26:14;;;;;;;116.18;60.67;;;6.50;99.90;;;;;;5080587;28;20508;-74
2022/12/08 06:28:41;;;;;;;124.35;64.53;;;6.40;99.90;;;;;;5078104;28;20428;-74
2022/12/08 06:31:15;;;;;;;109.68;58.22;;;6.50;99.90;;;;;;5077363;28;20077;-74
2022/12/08 06:33:42;;;;;;;105.28;55.97;;;6.50;99.90;;;;;;5077031;28;20028;-74
2022/12/08 06:36:11;;;;;;;100.53;53.63;;;6.60;99.90;;;;;;5075201;28;20037;-74
2022/12/08 06:38:37;;;;;;;107.70;55.90;;;6.60;99.90;;;;;;5076479;28;20478;-74
2022/12/08 06:41:05;;;;;;;102.13;54.90;;;6.50;99.90;;;;;;5076856;28;20040;-74
2022/12/08 06:43:32;;;;;;;90.68;48.40;;;6.50;99.90;;;;;;5078595;28;20027;-74
2022/12/08 06:45:58;;;;;;;91.57;51.72;;;6.50;99.90;;;;;;5096992;28;20028;-74
2022/12/08 06:48:24;;;;;;;97.10;50.67;;;6.60;99.90;;;;;;5102424;28;20017;-74
2022/12/08 06:50:50;;;;;;;88.45;47.72;;;6.70;99.90;;;;;;5083844;28;20090;-74
2022/12/08 06:53:17;;;;;;;89.75;47.65;;;6.60;99.90;;;;;;5067718;28;20112;-74
2022/12/08 06:55:50;;;;;;;93.65;52.17;;;6.60;99.90;;;;;;5076750;28;20024;-74
2022/12/08 06:58:17;;;;;;;96.82;51.30;;;6.50;99.90;;;;;;5079409;28;20036;-75
2022/12/08 07:00:43;;;;;;;85.07;48.85;;;6.60;99.90;;;;;;5085710;28;20036;-75
2022/12/08 07:03:11;;;;;;;114.88;59.17;;;6.70;99.90;;;;;;5088435;28;20032;-75
2022/12/08 07:05:37;;;;;;;105.10;53.78;;;6.70;99.90;;;;;;5085710;28;20028;-75
2022/12/08 07:08:05;;;;;;;121.32;61.15;;;6.80;99.90;;;;;;5080483;28;20064;-75
2022/12/08 07:10:31;;;;;;;97.68;54.22;;;6.90;99.90;;;;;;5082997;28;20401;-75
2022/12/08 07:12:57;;;;;;;95.45;55.22;;;6.80;99.90;;;;;;5086254;28;20111;-75
2022/12/08 07:15:23;;;;;;;99.78;59.60;;;6.90;99.90;;;;;;5084061;28;20062;-75
2022/12/08 07:17:49;;;;;;;99.75;60.38;;;6.90;99.90;;;;;;5078359;28;20020;-62
2022/12/08 07:20:19;;;;;;;94.93;57.75;;;7.00;99.90;;;;;;5102678;27;20051;-62
2022/12/08 07:22:52;;;;;;;104.03;60.10;;;7.10;99.90;;;;;;5131756;27;20122;-62
2022/12/08 07:25:18;;;;;;;95.57;57.30;;;7.20;99.90;;;;;;5123874;27;20031;-63
2022/12/08 07:27:45;;;;;;;94.43;54.90;;;7.30;99.90;;;;;;5125901;27;20046;-62
2022/12/08 07:30:12;;;;;;;128.57;69.68;;;7.40;99.90;;;;;;5129636;27;20015;-62
2022/12/08 07:32:38;;;;;;;116.78;62.78;;;7.40;99.90;;;;;;5128541;27;20114;-62
2022/12/08 07:35:05;;;;;;;117.57;64.85;;;7.40;99.90;;;;;;5130865;27;20405;-63
2022/12/08 07:37:36;;;;;;;102.20;59.22;;;7.50;99.90;;;;;;5126734;27;20034;-63
2022/12/08 07:40:06;;;;;;;99.55;55.20;;;7.50;99.90;;;;;;5134687;27;20077;-62
2022/12/08 07:42:32;;;;;;;98.43;57.15;;;7.60;99.90;;;;;;5124890;27;20023;-63
2022/12/08 07:44:59;;;;;;;103.65;58.35;;;7.60;99.90;;;;;;5129606;27;20024;-62
2022/12/08 08:02:58;;;;;;;77.05;43.28;;;7.90;99.90;;;;;;5088307;28;20101;-62
2022/12/08 08:05:25;;;;;;;73.63;45.17;;;7.90;99.90;;;;;;5096587;28;20421;-62
2022/12/08 08:07:51;;;;;;;64.68;38.97;;;7.90;99.90;;;;;;5077825;28;20035;-62
2022/12/08 08:10:17;;;;;;;66.10;39.85;;;7.90;99.90;;;;;;5108787;28;20019;-62
2022/12/08 08:12:43;;;;;;;67.88;42.22;;;7.90;99.90;;;;;;5113576;28;20060;-62
2022/12/08 08:15:09;;;;;;;71.63;38.80;;;8.00;99.90;;;;;;5112988;28;20038;-63
2022/12/08 08:17:37;;;;;;;65.28;38.90;;;8.00;99.90;;;;;;5115438;28;20031;-63
2022/12/08 08:20:06;;;;;;;68.93;40.67;;;8.00;99.90;;;;;;5111847;28;20047;-63
2022/12/08 08:22:32;;;;;;;61.10;37.10;;;8.00;99.90;;;;;;5112214;28;20055;-63
2022/12/08 08:24:58;;;;;;;60.90;34.80;;;7.80;99.90;;;;;;5111705;28;20027;-63
2022/12/08 08:27:25;;;;;;;61.90;37.72;;;7.80;99.90;;;;;;5113428;28;20020;-63
2022/12/08 08:29:52;;;;;;;63.45;37.85;;;7.60;99.90;;;;;;5113865;28;20024;-63
2022/12/08 08:32:18;;;;;;;67.35;37.88;;;7.60;99.90;;;;;;5105909;28;20103;-62
2022/12/08 08:34:44;;;;;;;62.35;36.85;;;7.60;99.90;;;;;;5111817;28;20040;-63
2022/12/08 08:37:10;;;;;;;51.72;32.22;;;7.70;99.90;;;;;;5110402;28;20063;-63
2022/12/08 08:39:36;;;;;;;56.95;31.70;;;7.70;99.90;;;;;;5114789;28;20026;-63
2022/12/08 08:42:02;;;;;;;56.67;33.28;;;7.60;99.90;;;;;;5107005;28;20095;-63
2022/12/08 08:44:36;;;;;;;57.00;33.15;;;7.70;99.90;;;;;;5096660;28;20024;-62
2022/12/08 08:47:07;;;;;;;50.90;32.15;;;7.70;99.90;;;;;;5110936;28;20039;-63
2022/12/08 08:49:34;;;;;;;50.20;31.17;;;7.60;99.90;;;;;;5114733;28;20051;-63
2022/12/08 08:52:00;;;;;;;63.25;33.90;;;7.60;99.90;;;;;;5113983;28;20130;-63
2022/12/08 08:54:28;;;;;;;56.17;33.00;;;7.70;99.90;;;;;;5115312;28;20094;-63
2022/12/08 08:56:55;;;;;;;56.25;32.80;;;7.70;99.90;;;;;;5114731;28;20424;-64
2022/12/08 08:59:21;;;;;;;55.50;32.72;;;7.80;99.90;;;;;;5113985;28;20031;-64
2022/12/08 09:01:47;;;;;;;56.25;31.73;;;7.90;99.90;;;;;;5112563;28;20020;-64
2022/12/08 09:04:13;;;;;;;55.83;32.40;;;7.90;99.90;;;;;;5113778;28;20027;-64
2022/12/08 09:06:39;;;;;;;58.35;33.30;;;7.90;99.90;;;;;;5112873;28;20020;-63
2022/12/08 09:09:05;;;;;;;57.35;33.75;;;8.00;99.90;;;;;;5113062;28;20023;-63
2022/12/08 09:11:31;;;;;;;58.45;32.35;;;8.00;99.90;;;;;;5111915;28;20476;-63
2022/12/08 09:13:57;;;;;;;55.75;32.38;;;8.00;99.90;;;;;;5113925;27;20076;-63
2022/12/08 09:16:24;;;;;;;55.08;33.63;;;8.00;99.90;;;;;;5110808;28;20019;-63
2022/12/08 09:18:53;;;;;;;55.42;32.10;;;8.00;99.90;;;;;;5113963;28;20562;-63
2022/12/08 09:21:24;;;;;;;102.53;69.15;;;8.00;99.90;;;;;;5110986;28;20469;-63
2022/12/08 09:23:59;;;;;;;113.68;73.90;;;8.00;99.90;;;;;;5113617;28;20385;-63
2022/12/08 09:26:29;;;;;;;93.25;56.05;;;8.10;99.90;;;;;;5108552;28;20060;-63
2022/12/08 09:28:56;;;;;;;95.50;55.88;;;8.20;99.90;;;;;;5109657;28;20521;-63
2022/12/08 09:31:23;;;;;;;94.63;54.65;;;8.20;99.90;;;;;;5109575;28;20481;-63
2022/12/08 09:33:52;;;;;;;90.50;53.00;;;8.30;99.90;;;;;;5107189;28;20031;-63
2022/12/08 09:36:19;;;;;;;82.57;49.47;;;8.20;99.90;;;;;;5107808;28;20050;-63
2022/12/08 09:38:52;;;;;;;108.70;66.20;;;8.20;99.90;;;;;;5112217;28;20023;-63
2022/12/08 09:41:36;;;;;;;98.85;57.88;;;8.30;99.90;;;;;;5087284;28;20028;-63
2022/12/08 09:44:08;;;;;;;102.53;59.70;;;8.20;99.90;;;;;;5111702;28;20042;-63
2022/12/08 09:46:38;;;;;;;92.40;51.33;;;8.20;99.90;;;;;;5106019;28;20317;-63
2022/12/08 09:49:10;;;;;;;80.95;45.83;;;8.30;99.90;;;;;;5129178;27;20020;-63
2022/12/08 09:51:42;;;;;;;79.43;40.97;;;8.20;99.90;;;;;;5108891;28;20020;-63
2022/12/08 09:54:23;;;;;;;83.25;44.58;;;8.10;99.90;;;;;;5109164;28;20073;-63
2022/12/08 09:56:56;;;;;;;80.28;44.00;;;8.20;99.90;;;;;;5099755;28;20077;-63
2022/12/08 09:59:30;;;;;;;69.03;40.22;;;8.10;99.90;;;;;;5110899;28;20042;-63
2022/12/08 10:01:56;;;;;;;86.80;47.30;;;8.10;99.90;;;;;;5110813;28;20457;-63
2022/12/08 10:04:33;;;;;;;80.78;45.95;;;8.20;99.90;;;;;;5112220;28;20072;-63
2022/12/08 10:07:27;;;;;;;89.35;53.58;;;8.20;99.90;;;;;;5110712;28;20524;-63
2022/12/08 10:10:05;;;;;;;84.30;48.67;;;8.30;99.90;;;;;;5107655;28;20027;-64
2022/12/08 10:12:56;;;;;;;88.68;50.42;;;8.40;99.90;;;;;;5110562;28;20389;-63
2022/12/08 10:16:00;;;;;;;98.75;54.28;;;8.20;99.90;;;;;;5109757;28;20528;-63
2022/12/08 10:18:29;;;;;;;106.10;58.50;;;8.00;99.90;;;;;;5107183;28;20052;-63
2022/12/08 10:21:10;;;;;;;84.68;48.15;;;8.00;99.90;;;;;;5110483;28;20047;-64
2022/12/08 10:23:40;;;;;;;74.60;41.28;;;8.10;99.90;;;;;;5110315;28;20031;-63
2022/12/08 10:26:21;;;;;;;83.85;49.03;;;8.10;99.90;;;;;;5112532;28;20076;-64
2022/12/08 10:28:48;;;;;;;102.97;59.70;;;8.10;99.90;;;;;;5109643;28;20032;-63
2022/12/08 10:31:22;;;;;;;104.10;57.30;;;8.10;99.90;;;;;;5109301;28;20031;-63
2022/12/08 10:33:57;;;;;;;82.22;46.10;;;8.00;99.90;;;;;;5109995;28;20073;-64
2022/12/08 10:36:48;;;;;;;70.75;40.60;;;8.00;99.90;;;;;;5111823;28;20044;-64
2022/12/08 10:39:44;;;;;;;70.93;41.45;;;7.90;99.90;;;;;;5099630;28;20024;-63
2022/12/08 10:42:19;;;;;;;72.03;40.72;;;7.90;99.90;;;;;;5109989;28;20031;-64
2022/12/08 10:44:56;;;;;;;70.68;42.00;;;8.00;99.90;;;;;;5110555;28;20023;-64
2022/12/08 10:47:24;;;;;;;73.07;41.53;;;8.00;99.90;;;;;;5107672;28;20774;-64
2022/12/08 10:50:09;;;;;;;71.15;39.92;;;7.90;99.90;;;;;;5109468;28;20023;-63
2022/12/08 10:52:42;;;;;;;107.30;57.88;;;7.90;99.90;;;;;;5111526;28;20031;-62
2022/12/08 10:55:17;;;;;;;94.22;52.95;;;7.90;99.90;;;;;;5099407;28;20122;-63
2022/12/08 10:57:44;;;;;;;81.15;45.90;;;7.90;99.90;;;;;;5115472;28;20024;-62
2022/12/08 11:00:24;;;;;;;73.75;43.97;;;8.00;99.90;;;;;;5116421;28;20400;-62
2022/12/08 11:03:02;;;;;;;94.78;46.92;;;8.00;99.90;;;;;;5116343;28;20023;-63
2022/12/08 11:05:33;;;;;;;82.03;46.67;;;7.80;99.90;;;;;;5114823;28;20016;-63
2022/12/08 11:08:00;;;;;;;83.18;49.33;;;7.80;99.90;;;;;;5113422;28;20031;-63
2022/12/08 11:10:41;;;;;;;79.03;43.88;;;7.70;99.90;;;;;;5113279;28;20077;-63
2022/12/08 11:14:00;;;;;;;74.78;42.35;;;7.60;99.90;;;;;;5117355;28;20034;-63
2022/12/08 11:16:10;;;;;;;79.07;43.78;;;7.70;99.90;;;;;;5102817;28;20043;-63
2022/12/08 11:18:43;;;;;;;76.90;43.33;;;7.80;99.90;;;;;;5116094;28;20470;-63
2022/12/08 11:21:17;;;;;;;98.03;51.55;;;7.70;99.90;;;;;;5113996;28;20031;-63
2022/12/08 11:23:49;;;;;;;94.78;52.20;;;7.70;99.90;;;;;;5116942;28;20024;-63
2022/12/08 11:26:31;;;;;;;81.25;46.03;;;7.70;99.90;;;;;;5108071;28;20031;-63
2022/12/08 11:28:57;;;;;;;85.45;48.30;;;7.70;99.90;;;;;;5111024;28;20028;-64
2022/12/08 11:31:34;;;;;;;82.30;45.47;;;7.70;99.90;;;;;;5099554;28;20024;-64
2022/12/08 11:34:01;;;;;;;90.85;48.05;;;7.60;99.90;;;;;;5113944;28;20027;-64
2022/12/08 11:36:33;;;;;;;90.18;47.53;;;7.80;99.90;;;;;;5114783;28;20076;-64
2022/12/08 11:39:01;;;;;;;92.93;53.20;;;7.80;99.90;;;;;;5114425;28;20426;-64
2022/12/08 11:41:40;;;;;;;103.97;55.50;;;7.90;99.90;;;;;;5114815;28;20027;-64
2022/12/08 11:44:47;;;;;;;92.35;52.72;;;7.90;99.90;;;;;;5110699;28;20314;-64
2022/12/08 11:47:30;;;;;;;88.30;48.75;;;7.90;99.90;;;;;;5098338;28;20127;-64
2022/12/08 11:50:17;;;;;;;69.30;38.42;;;8.00;99.90;;;;;;5113295;28;20023;-65
2022/12/08 11:52:50;;;;;;;56.28;34.15;;;8.10;99.90;;;;;;5115233;28;20606;-64
2022/12/08 11:55:39;;;;;;;49.22;31.48;;;8.10;99.90;;;;;;5116687;28;20027;-65
2022/12/08 11:58:10;;;;;;;56.72;32.15;;;8.20;99.90;;;;;;5103467;28;20043;-65
2022/12/08 12:00:36;;;;;;;68.05;37.20;;;8.30;99.90;;;;;;5117333;28;20023;-64
2022/12/08 12:03:44;;;;;;;75.05;40.40;;;8.40;99.90;;;;;;5116926;28;20083;-64
2022/12/08 12:06:40;;;;;;;73.18;40.25;;;8.50;99.90;;;;;;5012588;28;20081;-64
2022/12/08 12:09:32;;;;;;;68.70;40.05;;;8.50;99.90;;;;;;5014787;28;20507;-63
2022/12/08 12:12:17;;;;;;;67.07;38.97;;;8.70;99.90;;;;;;5018963;28;20062;-63
2022/12/08 12:14:54;;;;;;;65.93;38.42;;;8.70;99.90;;;;;;5015306;28;20077;-62
2022/12/08 12:17:42;;;;;;;70.78;39.30;;;8.80;99.90;;;;;;5020300;28;20030;-63
2022/12/08 12:20:27;;;;;;;69.63;40.78;;;8.70;99.90;;;;;;5012677;28;20049;-62
2022/12/08 12:23:17;;;;;;;63.60;35.35;;;8.70;99.90;;;;;;5012256;28;20038;-63
2022/12/08 12:26:01;;;;;;;49.05;28.77;;;8.60;99.90;;;;;;5007219;28;20034;-63
2022/12/08 12:28:38;;;;;;;51.05;29.92;;;8.70;99.90;;;;;;5009782;28;20057;-63
2022/12/08 12:31:08;;;;;;;57.42;35.72;;;8.90;99.90;;;;;;5009501;28;20054;-62
2022/12/08 12:33:41;;;;;;;46.22;28.20;;;8.90;99.90;;;;;;5011712;28;20050;-62
2022/12/08 12:36:08;;;;;;;41.15;24.95;;;9.00;99.90;;;;;;5012021;28;20484;-63
2022/12/08 12:41:43;;;;;;;57.00;32.72;;;9.00;99.90;;;;;;5065590;28;20096;-63
2022/12/08 12:44:12;;;;;;;55.88;33.70;;;9.00;99.90;;;;;;5073748;28;20387;-63
2022/12/08 12:46:49;;;;;;;60.60;34.95;;;9.10;99.90;;;;;;5073141;28;20111;-63
2022/12/08 12:49:36;;;;;;;57.85;34.97;;;9.00;99.90;;;;;;5074186;28;20078;-63
2022/12/08 12:52:07;;;;;;;79.85;47.15;;;9.20;99.90;;;;;;5061947;28;20035;-63
2022/12/08 12:54:33;;;;;;;78.60;46.17;;;9.10;99.90;;;;;;5072910;28;20355;-63
2022/12/08 12:57:08;;;;;;;74.72;44.78;;;9.10;99.90;;;;;;5073985;28;20024;-62
2022/12/08 12:59:51;;;;;;;71.85;44.13;;;9.10;99.90;;;;;;5073921;28;20036;-63
2022/12/08 13:02:30;;;;;;;72.82;44.75;;;9.00;99.90;;;;;;5071330;28;20031;-63
2022/12/08 13:05:21;;;;;;;84.22;53.33;;;9.00;99.90;;;;;;5068546;28;20025;-63
2022/12/08 13:08:17;;;;;;;85.30;49.10;;;9.00;99.90;;;;;;5068974;28;20351;-63
2022/12/08 13:11:03;;;;;;;71.25;43.67;;;9.00;99.90;;;;;;5070992;28;20108;-63
2022/12/08 13:13:30;;;;;;;72.40;44.75;;;9.10;99.90;;;;;;5073211;28;20070;-63
2022/12/08 13:16:17;;;;;;;72.38;44.35;;;9.10;99.90;;;;;;5074045;28;20120;-63
2022/12/08 13:18:48;;;;;;;83.85;49.15;;;9.10;99.90;;;;;;5073983;28;20052;-63
2022/12/08 13:21:23;;;;;;;82.40;47.47;;;9.10;99.90;;;;;;5072992;28;20032;-63